Time;durP1;ratioP1;P1;durP2;ratioP2;P2;SDS_P1;SDS_P2;PMS_P1;PMS_P2;Temp;Humidity;BMP_temperature;BMP_pressure;BME280_temperature;BME280_humidity;BME280_pressure;Samples;Min_cycle;Max_cycle;Signal;HPM_P1;HPM_P2
2021/03/01 00:01:25;;;;;;;10.20;6.18;;;6.40;99.90;;;;;;4980271;28;20303;-79
2021/03/01 00:03:56;;;;;;;9.65;5.60;;;6.40;99.90;;;;;;4983971;28;20191;-79
2021/03/01 00:06:24;;;;;;;11.75;6.82;;;6.40;99.90;;;;;;4987681;28;20175;-79
2021/03/01 00:08:53;;;;;;;11.88;5.82;;;6.40;99.90;;;;;;5005835;28;20211;-79
2021/03/01 00:11:18;;;;;;;14.02;5.57;;;6.50;99.90;;;;;;4977999;28;20251;-78
2021/03/01 00:13:44;;;;;;;9.00;5.90;;;6.40;99.90;;;;;;4977074;28;20278;-80
2021/03/01 00:16:15;;;;;;;14.10;5.53;;;6.50;99.90;;;;;;4975598;28;20250;-79
2021/03/01 00:18:41;;;;;;;10.75;5.68;;;6.50;99.90;;;;;;4976614;28;20175;-79
2021/03/01 00:21:06;;;;;;;10.03;5.30;;;6.50;99.90;;;;;;4975930;28;20198;-79
2021/03/01 00:23:32;;;;;;;11.70;5.87;;;6.50;99.90;;;;;;4974982;28;20207;-79
2021/03/01 00:25:58;;;;;;;9.43;6.10;;;6.50;99.90;;;;;;4975828;28;20251;-79
2021/03/01 00:28:23;;;;;;;7.83;5.00;;;6.50;99.90;;;;;;4991049;28;20179;-79
2021/03/01 00:30:49;;;;;;;7.60;5.00;;;6.50;99.90;;;;;;4990402;28;20738;-79
2021/03/01 00:33:14;;;;;;;11.53;7.77;;;6.50;99.90;;;;;;4977435;28;20308;-79
2021/03/01 00:36:18;;;;;;;12.73;7.23;;;6.50;99.90;;;;;;4976311;28;20187;-79
2021/03/01 00:38:44;;;;;;;12.63;7.22;;;6.50;99.90;;;;;;4990616;28;20201;-79
2021/03/01 00:41:10;;;;;;;15.60;7.87;;;6.50;99.90;;;;;;4958607;28;20271;-80
2021/03/01 00:43:35;;;;;;;14.90;8.33;;;6.50;99.90;;;;;;4975900;28;20200;-79
2021/03/01 00:46:01;;;;;;;12.80;6.80;;;6.40;99.90;;;;;;4990924;28;20732;-79
2021/03/01 00:48:27;;;;;;;12.27;6.13;;;6.40;99.90;;;;;;4975800;28;20767;-80
2021/03/01 00:50:52;;;;;;;12.73;6.30;;;6.40;99.90;;;;;;4974574;28;20251;-79
2021/03/01 00:53:22;;;;;;;12.20;7.60;;;6.50;99.90;;;;;;4974499;28;20233;-80
2021/03/01 00:55:48;;;;;;;11.43;7.15;;;6.50;99.90;;;;;;4975521;28;20571;-79
2021/03/01 00:58:15;;;;;;;11.00;6.63;;;6.50;99.90;;;;;;4975416;28;20167;-80
2021/03/01 01:00:40;;;;;;;9.73;6.22;;;6.60;99.90;;;;;;4991041;28;20531;-79
2021/03/01 01:03:06;;;;;;;18.17;8.83;;;6.60;99.90;;;;;;4975864;28;20306;-79
2021/03/01 01:05:32;;;;;;;12.10;7.50;;;6.60;99.90;;;;;;4976350;28;20222;-80
2021/03/01 01:08:00;;;;;;;11.70;6.60;;;6.40;99.90;;;;;;4974651;28;20629;-79
2021/03/01 01:10:26;;;;;;;12.52;7.47;;;6.50;99.90;;;;;;4974955;28;20609;-80
2021/03/01 01:12:52;;;;;;;13.83;7.93;;;6.50;99.90;;;;;;4957448;28;20179;-79
2021/03/01 01:15:18;;;;;;;10.27;6.47;;;6.40;99.90;;;;;;4990428;28;20327;-80
2021/03/01 01:17:44;;;;;;;14.03;6.80;;;6.40;99.90;;;;;;4975705;28;20176;-79
2021/03/01 01:20:11;;;;;;;18.50;8.80;;;6.40;99.90;;;;;;4991714;28;20215;-80
2021/03/01 01:22:37;;;;;;;12.02;6.10;;;6.40;99.90;;;;;;4979721;28;20230;-79
2021/03/01 01:25:05;;;;;;;10.95;5.70;;;6.40;99.90;;;;;;5003449;28;20519;-80
2021/03/01 01:27:30;;;;;;;9.30;6.32;;;6.40;99.90;;;;;;4992294;28;20175;-80
2021/03/01 01:29:56;;;;;;;12.93;6.43;;;6.30;99.90;;;;;;4975385;28;20202;-79
2021/03/01 01:32:21;;;;;;;14.53;6.30;;;6.40;99.90;;;;;;4974224;28;20195;-79
2021/03/01 01:34:47;;;;;;;12.27;6.83;;;6.40;99.90;;;;;;4974444;28;20175;-79
2021/03/01 01:37:12;;;;;;;9.57;5.10;;;6.40;99.90;;;;;;4974030;28;20186;-81
2021/03/01 01:39:38;;;;;;;11.33;6.40;;;6.40;99.90;;;;;;4958135;28;20675;-79
2021/03/01 01:42:04;;;;;;;15.00;6.03;;;6.40;99.90;;;;;;4989146;28;20199;-79
2021/03/01 01:44:29;;;;;;;10.17;6.33;;;6.40;99.90;;;;;;4974104;28;20245;-79
2021/03/01 01:46:55;;;;;;;13.57;6.90;;;6.40;99.90;;;;;;4975572;28;20163;-79
2021/03/01 01:49:26;;;;;;;10.70;6.20;;;6.30;99.90;;;;;;4974888;28;20708;-78
2021/03/01 01:51:52;;;;;;;17.50;7.30;;;6.30;99.90;;;;;;4974361;28;20285;-78
2021/03/01 01:54:17;;;;;;;13.20;6.70;;;6.30;99.90;;;;;;4974540;28;20199;-80
2021/03/01 01:56:43;;;;;;;18.60;6.73;;;6.30;99.90;;;;;;4989249;28;20892;-79
2021/03/01 01:59:09;;;;;;;12.93;6.40;;;6.30;99.90;;;;;;4972742;28;20865;-78
2021/03/01 02:01:35;;;;;;;11.73;6.20;;;6.40;99.90;;;;;;4973720;28;21058;-79
2021/03/01 02:04:15;;;;;;;11.07;5.10;;;6.20;99.90;;;;;;4974380;28;20281;-79
2021/03/01 02:06:57;;;;;;;12.15;6.15;;;6.30;99.90;;;;;;4974777;28;20524;-79
2021/03/01 02:09:44;;;;;;;11.40;6.20;;;6.20;99.90;;;;;;4989010;28;20213;-78
2021/03/01 02:12:54;;;;;;;12.57;6.68;;;6.30;99.90;;;;;;4973562;28;20219;-79
2021/03/01 02:15:44;;;;;;;14.57;6.93;;;6.10;99.90;;;;;;4965072;28;20183;-78
2021/03/01 02:18:10;;;;;;;9.23;5.47;;;6.20;99.90;;;;;;4989638;28;20167;-78
2021/03/01 02:20:44;;;;;;;12.05;5.57;;;6.30;99.90;;;;;;4974482;28;20199;-80
2021/03/01 02:23:11;;;;;;;13.73;6.70;;;6.30;99.90;;;;;;4988797;28;20276;-79
2021/03/01 02:25:48;;;;;;;15.20;6.70;;;6.30;99.90;;;;;;4973731;28;20302;-79
2021/03/01 02:28:16;;;;;;;10.98;6.60;;;6.40;99.90;;;;;;4972774;28;20199;-81
2021/03/01 02:30:52;;;;;;;6.95;5.32;;;6.40;99.90;;;;;;4972798;28;20196;-78
2021/03/01 02:33:22;;;;;;;13.57;7.20;;;6.40;99.90;;;;;;4973101;28;20714;-79
2021/03/01 02:35:59;;;;;;;13.15;7.05;;;6.30;99.90;;;;;;4974433;28;20180;-79
2021/03/01 02:38:29;;;;;;;18.20;7.32;;;6.40;99.90;;;;;;4974140;28;20202;-79
2021/03/01 02:40:57;;;;;;;13.32;6.13;;;6.40;99.90;;;;;;4973347;28;20670;-79
2021/03/01 02:43:25;;;;;;;10.30;6.95;;;6.40;99.90;;;;;;4988462;28;20582;-80
2021/03/01 02:45:51;;;;;;;12.70;6.35;;;6.40;99.90;;;;;;4973632;28;20238;-80
2021/03/01 02:48:18;;;;;;;15.45;6.53;;;6.40;99.90;;;;;;4991105;28;20220;-80
2021/03/01 02:50:45;;;;;;;10.13;6.53;;;6.40;99.90;;;;;;4972278;28;20560;-78
2021/03/01 02:53:13;;;;;;;15.25;6.53;;;6.40;99.90;;;;;;4989999;28;20270;-79
2021/03/01 02:55:42;;;;;;;12.52;5.72;;;6.40;99.90;;;;;;4977345;28;20191;-79
2021/03/01 02:58:09;;;;;;;11.52;6.07;;;6.40;99.90;;;;;;4992717;28;20211;-79
2021/03/01 03:00:36;;;;;;;11.82;5.97;;;6.40;99.90;;;;;;4992473;28;20282;-78
2021/03/01 03:03:03;;;;;;;11.48;5.75;;;6.40;99.90;;;;;;4976723;28;20678;-79
2021/03/01 03:05:29;;;;;;;13.20;6.00;;;6.40;99.90;;;;;;4977157;28;20286;-78
2021/03/01 03:07:55;;;;;;;11.70;5.93;;;6.30;99.90;;;;;;4992214;28;20262;-78
2021/03/01 03:10:21;;;;;;;10.25;5.28;;;6.40;99.90;;;;;;4976765;28;20164;-79
2021/03/01 03:12:47;;;;;;;14.25;6.47;;;6.40;99.90;;;;;;4977736;28;20195;-79
2021/03/01 03:15:17;;;;;;;13.55;6.70;;;6.40;99.90;;;;;;4959814;28;20186;-79
2021/03/01 03:17:44;;;;;;;18.10;7.78;;;6.30;99.90;;;;;;4991715;28;20618;-79
2021/03/01 03:20:10;;;;;;;17.75;7.45;;;6.30;99.90;;;;;;4976581;28;20176;-83
2021/03/01 03:22:35;;;;;;;12.93;6.78;;;6.30;99.90;;;;;;4976699;28;20211;-79
2021/03/01 03:25:03;;;;;;;12.73;7.60;;;6.40;99.90;;;;;;4976782;28;20163;-79
2021/03/01 03:27:29;;;;;;;9.27;5.40;;;6.40;99.90;;;;;;4977525;28;20163;-79
2021/03/01 03:29:54;;;;;;;11.27;5.40;;;6.30;99.90;;;;;;4976606;28;20197;-79
2021/03/01 03:32:20;;;;;;;13.60;6.80;;;6.40;99.90;;;;;;4974906;28;20194;-79
2021/03/01 03:34:46;;;;;;;18.85;7.45;;;6.30;99.90;;;;;;4991300;28;20238;-79
2021/03/01 03:37:20;;;;;;;9.23;5.47;;;6.30;99.90;;;;;;4958753;28;20594;-79
2021/03/01 03:39:48;;;;;;;13.55;7.15;;;6.30;99.90;;;;;;4991108;28;20179;-79
2021/03/01 03:42:22;;;;;;;15.93;7.05;;;6.30;99.90;;;;;;4975994;28;20270;-78
2021/03/01 03:44:50;;;;;;;9.80;5.90;;;6.30;99.90;;;;;;4974846;28;20203;-80
2021/03/01 03:47:16;;;;;;;10.88;5.72;;;6.40;99.90;;;;;;4976585;28;20234;-79
2021/03/01 03:49:44;;;;;;;12.93;8.45;;;6.30;99.90;;;;;;4976399;28;20176;-78
2021/03/01 03:52:12;;;;;;;11.05;6.45;;;6.40;99.90;;;;;;4976682;28;20627;-78
2021/03/01 03:54:46;;;;;;;12.25;6.55;;;6.30;99.90;;;;;;4975489;28;20243;-79
2021/03/01 03:57:18;;;;;;;16.27;6.55;;;6.30;99.90;;;;;;4976559;28;20179;-79
2021/03/01 03:59:45;;;;;;;15.93;9.00;;;6.30;99.90;;;;;;4976443;28;20172;-80
2021/03/01 04:02:14;;;;;;;14.40;7.03;;;6.30;99.90;;;;;;4976313;28;20195;-80
2021/03/01 04:04:41;;;;;;;13.73;7.00;;;6.30;99.90;;;;;;4976633;28;20214;-79
2021/03/01 04:07:08;;;;;;;20.58;7.82;;;6.30;99.90;;;;;;4976177;28;20261;-79
2021/03/01 04:09:38;;;;;;;10.95;5.68;;;6.30;99.90;;;;;;4974663;28;20179;-79
2021/03/01 04:12:05;;;;;;;16.25;7.40;;;6.30;99.90;;;;;;4975455;28;20198;-78
2021/03/01 04:14:32;;;;;;;14.57;6.47;;;6.30;99.90;;;;;;4975300;28;20203;-78
2021/03/01 04:17:02;;;;;;;13.85;7.18;;;6.30;99.90;;;;;;4990600;28;20277;-78
2021/03/01 04:19:31;;;;;;;18.15;8.23;;;6.30;99.90;;;;;;4975633;28;20167;-79
2021/03/01 04:21:58;;;;;;;16.83;7.97;;;6.40;99.90;;;;;;4975517;28;20199;-79
2021/03/01 04:24:26;;;;;;;15.75;6.65;;;6.40;99.90;;;;;;4975733;28;20196;-78
2021/03/01 04:26:52;;;;;;;15.10;7.05;;;6.40;99.90;;;;;;4975457;28;20622;-79
2021/03/01 04:29:19;;;;;;;17.02;7.43;;;6.40;99.90;;;;;;4975208;28;20241;-79
2021/03/01 04:31:47;;;;;;;12.02;5.82;;;6.30;99.90;;;;;;4975070;28;20183;-79
2021/03/01 04:34:16;;;;;;;16.20;7.45;;;6.20;99.90;;;;;;4975130;28;20199;-79
2021/03/01 04:36:42;;;;;;;10.45;5.65;;;6.20;99.90;;;;;;4975140;28;20178;-79
2021/03/01 04:39:08;;;;;;;17.30;8.23;;;6.30;99.90;;;;;;4973404;28;20176;-80
2021/03/01 04:41:36;;;;;;;14.50;6.50;;;6.30;99.90;;;;;;4974212;28;20494;-79
2021/03/01 04:44:04;;;;;;;12.05;7.25;;;6.30;99.90;;;;;;4973231;28;20204;-80
2021/03/01 04:46:30;;;;;;;19.30;7.63;;;6.30;99.90;;;;;;4974909;28;20179;-80
2021/03/01 04:49:00;;;;;;;14.05;6.95;;;6.40;99.90;;;;;;4976913;28;20226;-81
2021/03/01 04:51:26;;;;;;;20.27;8.45;;;6.30;99.90;;;;;;4975689;28;20192;-82
2021/03/01 04:53:53;;;;;;;14.37;6.30;;;6.30;99.90;;;;;;4976985;28;20185;-81
2021/03/01 04:56:19;;;;;;;13.88;7.03;;;6.30;99.90;;;;;;4959440;28;20933;-80
2021/03/01 04:58:45;;;;;;;14.40;7.30;;;6.30;99.90;;;;;;4975336;28;20258;-79
2021/03/01 05:01:11;;;;;;;11.13;6.17;;;6.30;99.90;;;;;;4974908;28;20442;-79
2021/03/01 05:03:38;;;;;;;13.25;7.35;;;6.30;99.90;;;;;;4981079;28;20241;-80
2021/03/01 05:06:04;;;;;;;18.55;8.07;;;6.30;99.90;;;;;;4983872;28;20550;-79
2021/03/01 05:08:34;;;;;;;11.32;6.45;;;6.30;99.90;;;;;;4979249;28;20177;-80
2021/03/01 05:11:03;;;;;;;17.55;7.38;;;6.30;99.90;;;;;;4973727;28;20265;-79
2021/03/01 05:13:28;;;;;;;15.65;8.48;;;6.30;99.90;;;;;;4975454;28;20179;-80
2021/03/01 05:15:54;;;;;;;10.00;6.37;;;6.30;99.90;;;;;;4974027;28;20516;-80
2021/03/01 05:18:20;;;;;;;16.37;6.30;;;6.30;99.90;;;;;;4974017;28;20183;-81
2021/03/01 05:20:46;;;;;;;13.25;7.30;;;6.30;99.90;;;;;;4990509;28;20203;-80
2021/03/01 05:23:11;;;;;;;17.40;8.17;;;6.30;99.90;;;;;;4990674;28;20217;-80
2021/03/01 05:25:37;;;;;;;11.63;6.90;;;6.20;99.90;;;;;;4990460;28;20207;-80
2021/03/01 05:28:03;;;;;;;13.53;7.10;;;6.20;99.90;;;;;;4975408;28;20251;-80
2021/03/01 05:30:29;;;;;;;11.67;6.10;;;6.20;99.90;;;;;;4974075;28;20179;-78
2021/03/01 05:32:54;;;;;;;15.87;7.23;;;6.20;99.90;;;;;;4974789;28;20996;-78
2021/03/01 05:35:20;;;;;;;14.67;7.27;;;6.20;99.90;;;;;;4974911;28;20191;-79
2021/03/01 05:37:46;;;;;;;13.07;7.15;;;6.30;99.90;;;;;;4974923;28;20538;-79
2021/03/01 05:40:12;;;;;;;11.70;6.40;;;6.30;99.90;;;;;;4972136;28;20179;-79
2021/03/01 05:42:40;;;;;;;12.20;6.40;;;6.30;99.90;;;;;;4974383;28;20597;-79
2021/03/01 05:45:07;;;;;;;13.50;6.78;;;6.40;99.90;;;;;;4975063;28;20191;-79
2021/03/01 05:47:35;;;;;;;9.95;6.82;;;6.40;99.90;;;;;;4974547;28;20171;-79
2021/03/01 05:50:02;;;;;;;14.73;7.65;;;6.40;99.90;;;;;;4974132;28;20723;-78
2021/03/01 05:52:28;;;;;;;12.10;6.68;;;6.40;99.90;;;;;;4983073;28;20257;-80
2021/03/01 05:54:54;;;;;;;13.45;6.40;;;6.30;99.90;;;;;;4975095;28;20258;-80
2021/03/01 05:57:22;;;;;;;12.07;7.43;;;6.40;99.90;;;;;;4974653;28;20203;-80
2021/03/01 05:59:48;;;;;;;16.83;6.85;;;6.40;99.90;;;;;;4988974;28;20643;-80
2021/03/01 06:02:16;;;;;;;15.60;7.90;;;6.40;99.90;;;;;;4974493;28;20195;-79
2021/03/01 06:04:42;;;;;;;14.32;7.05;;;6.30;99.90;;;;;;4975346;28;20207;-80
2021/03/01 06:07:08;;;;;;;14.25;7.07;;;6.40;99.90;;;;;;4974121;28;20245;-79
2021/03/01 06:09:34;;;;;;;12.27;7.03;;;6.40;99.90;;;;;;4975664;28;20262;-79
2021/03/01 06:11:59;;;;;;;13.13;7.30;;;6.30;99.90;;;;;;4976437;28;20195;-79
2021/03/01 06:14:25;;;;;;;13.90;5.77;;;6.30;99.90;;;;;;4975900;28;20187;-78
2021/03/01 06:17:14;;;;;;;17.07;6.93;;;6.40;99.90;;;;;;4978610;28;20264;-76
2021/03/01 06:19:58;;;;;;;12.55;6.70;;;6.40;99.90;;;;;;4984233;28;20407;-80
2021/03/01 06:22:40;;;;;;;15.10;7.18;;;6.40;99.90;;;;;;4996666;28;20246;-81
2021/03/01 06:25:16;;;;;;;12.35;6.72;;;6.40;99.90;;;;;;4997823;28;20179;-78
2021/03/01 06:27:52;;;;;;;10.73;6.60;;;6.40;99.90;;;;;;4998476;28;20170;-84
2021/03/01 06:30:20;;;;;;;14.70;7.57;;;6.40;99.90;;;;;;5018887;28;20174;-83
2021/03/01 06:33:11;;;;;;;13.60;7.35;;;6.20;99.90;;;;;;4981961;28;20179;-79
2021/03/01 06:35:57;;;;;;;14.73;6.68;;;6.40;99.90;;;;;;4980292;28;20174;-80
2021/03/01 06:38:28;;;;;;;16.08;7.30;;;6.60;99.90;;;;;;4994206;28;20177;-80
2021/03/01 06:41:19;;;;;;;17.63;8.70;;;6.60;99.90;;;;;;4978264;28;20229;-80
2021/03/01 06:43:56;;;;;;;19.75;7.85;;;6.40;99.90;;;;;;4977698;28;20206;-77
2021/03/01 06:46:23;;;;;;;15.43;7.57;;;6.40;99.90;;;;;;4977647;28;20179;-78
2021/03/01 06:48:49;;;;;;;21.25;7.88;;;6.50;99.90;;;;;;4976257;28;20187;-77
2021/03/01 06:51:15;;;;;;;17.17;7.68;;;6.50;99.90;;;;;;4976253;28;20611;-80
2021/03/01 06:53:40;;;;;;;13.93;8.17;;;6.50;99.90;;;;;;4977292;28;20192;-78
2021/03/01 06:56:11;;;;;;;14.20;6.33;;;6.60;99.90;;;;;;4977123;28;20425;-78
2021/03/01 06:58:45;;;;;;;18.38;8.10;;;6.60;99.90;;;;;;4991976;28;20180;-78
2021/03/01 07:01:14;;;;;;;12.68;7.97;;;6.70;99.90;;;;;;4976966;28;20203;-78
2021/03/01 07:03:42;;;;;;;23.23;7.30;;;6.70;99.90;;;;;;4977076;28;20218;-77
2021/03/01 07:06:09;;;;;;;12.68;7.30;;;6.70;99.90;;;;;;4974725;28;20175;-79
2021/03/01 07:08:49;;;;;;;14.63;7.65;;;6.70;99.90;;;;;;4975095;28;20179;-78
2021/03/01 07:11:34;;;;;;;17.92;9.23;;;6.70;99.90;;;;;;4976320;28;20187;-78
2021/03/01 07:14:06;;;;;;;13.82;8.52;;;6.80;99.90;;;;;;4976982;28;20179;-79
2021/03/01 07:16:42;;;;;;;13.57;7.43;;;6.90;99.90;;;;;;4978645;28;20186;-78
2021/03/01 07:19:13;;;;;;;14.95;7.30;;;7.00;99.90;;;;;;4997872;28;20183;-80
2021/03/01 07:21:41;;;;;;;19.00;7.78;;;6.90;99.90;;;;;;4981854;28;20191;-80
2021/03/01 07:24:08;;;;;;;17.15;8.63;;;6.90;99.90;;;;;;5001431;28;20207;-81
2021/03/01 07:26:34;;;;;;;22.30;8.10;;;6.90;99.90;;;;;;4985073;28;20190;-79
2021/03/01 07:29:08;;;;;;;17.70;8.02;;;7.00;99.90;;;;;;4980866;28;20700;-80
2021/03/01 07:31:34;;;;;;;18.10;7.85;;;6.90;99.90;;;;;;4981190;28;20683;-79
2021/03/01 07:34:03;;;;;;;15.75;7.68;;;7.10;99.90;;;;;;4979876;28;20195;-80
2021/03/01 07:36:30;;;;;;;14.77;7.50;;;7.20;99.90;;;;;;4980503;28;20175;-82
2021/03/01 07:38:58;;;;;;;15.85;7.63;;;7.20;99.90;;;;;;4993302;28;20194;-80
2021/03/01 07:41:24;;;;;;;17.85;8.00;;;7.10;99.90;;;;;;4994135;28;20258;-81
2021/03/01 07:43:51;;;;;;;14.75;7.50;;;7.10;99.90;;;;;;4980341;28;20218;-81
2021/03/01 07:46:17;;;;;;;19.42;9.32;;;7.10;99.90;;;;;;4995836;28;20187;-81
2021/03/01 07:48:43;;;;;;;10.70;6.82;;;7.20;99.90;;;;;;4980303;28;20175;-81
2021/03/01 07:51:11;;;;;;;19.90;8.40;;;7.20;99.90;;;;;;4981324;28;20206;-82
2021/03/01 07:53:43;;;;;;;17.42;7.95;;;7.30;99.90;;;;;;4986516;28;20262;-80
2021/03/01 07:56:42;;;;;;;24.33;8.48;;;7.30;99.90;;;;;;5001522;28;20176;-81
2021/03/01 07:59:09;;;;;;;24.80;10.10;;;7.30;99.90;;;;;;4998901;28;20178;-80
2021/03/01 08:01:36;;;;;;;17.80;8.75;;;7.30;99.90;;;;;;4979119;28;20207;-79
2021/03/01 08:04:02;;;;;;;22.65;9.38;;;7.40;99.90;;;;;;4976909;28;20258;-79
2021/03/01 08:06:57;;;;;;;18.92;9.85;;;7.40;99.90;;;;;;4978065;28;20665;-78
2021/03/01 08:09:49;;;;;;;18.48;9.05;;;7.40;99.90;;;;;;4975418;28;20183;-79
2021/03/01 08:12:36;;;;;;;14.35;7.38;;;7.40;99.90;;;;;;4993785;28;20191;-78
2021/03/01 08:15:03;;;;;;;17.48;8.18;;;7.30;99.90;;;;;;4973340;28;20203;-79
2021/03/01 08:17:29;;;;;;;14.88;7.80;;;7.40;99.90;;;;;;4993928;28;20167;-80
2021/03/01 08:19:57;;;;;;;15.52;7.82;;;7.50;99.90;;;;;;4977305;28;20573;-78
2021/03/01 08:22:23;;;;;;;13.30;6.78;;;7.50;99.90;;;;;;4975735;28;20198;-78
2021/03/01 08:24:56;;;;;;;17.40;8.40;;;7.50;99.90;;;;;;4977072;28;20203;-79
2021/03/01 08:27:25;;;;;;;12.73;6.72;;;7.50;99.90;;;;;;4978940;28;20573;-80
2021/03/01 08:30:23;;;;;;;12.32;6.40;;;7.70;99.90;;;;;;4977873;28;20183;-79
2021/03/01 08:33:24;;;;;;;12.25;7.45;;;7.80;99.90;;;;;;4977618;28;20202;-81
2021/03/01 08:35:53;;;;;;;10.93;5.75;;;7.70;99.90;;;;;;4966962;28;20195;-79
2021/03/01 08:38:40;;;;;;;13.77;7.07;;;7.80;99.90;;;;;;4973666;28;20188;-78
2021/03/01 08:41:07;;;;;;;14.95;7.07;;;7.80;99.90;;;;;;4991621;28;20597;-80
2021/03/01 08:43:40;;;;;;;12.35;7.43;;;7.90;99.90;;;;;;4979183;28;20196;-82
2021/03/01 08:46:17;;;;;;;15.40;8.05;;;7.50;99.90;;;;;;4997303;28;20404;-79
2021/03/01 08:48:48;;;;;;;14.48;7.93;;;7.30;99.90;;;;;;4980593;28;20207;-82
2021/03/01 08:51:15;;;;;;;17.23;8.90;;;7.50;99.90;;;;;;4976418;28;20234;-79
2021/03/01 08:53:41;;;;;;;13.80;7.80;;;7.80;99.90;;;;;;4975012;28;20216;-79
2021/03/01 08:56:24;;;;;;;16.47;8.23;;;7.80;99.90;;;;;;4991951;28;20183;-82
2021/03/01 08:58:50;;;;;;;28.73;8.57;;;7.90;99.90;;;;;;4977547;28;20259;-79
2021/03/01 09:01:16;;;;;;;15.27;7.57;;;7.90;99.90;;;;;;4976713;28;20307;-82
2021/03/01 09:03:46;;;;;;;20.45;8.85;;;7.90;99.90;;;;;;4976760;28;20207;-83
2021/03/01 09:06:13;;;;;;;14.00;8.40;;;7.90;99.90;;;;;;4978383;28;20186;-82
2021/03/01 09:08:39;;;;;;;16.73;8.18;;;7.80;99.90;;;;;;4978924;28;20176;-79
2021/03/01 09:11:28;;;;;;;17.05;8.40;;;7.90;99.90;;;;;;4977096;28;20227;-81
2021/03/01 09:14:02;;;;;;;14.27;8.27;;;7.60;99.90;;;;;;4990668;28;20651;-79
2021/03/01 09:16:30;;;;;;;18.00;8.57;;;7.70;99.90;;;;;;4976614;28;20222;-81
2021/03/01 09:19:10;;;;;;;11.15;7.43;;;7.90;99.90;;;;;;4987984;28;20184;-80
2021/03/01 09:21:40;;;;;;;15.65;7.60;;;8.00;99.90;;;;;;4991335;28;20237;-81
2021/03/01 09:24:07;;;;;;;13.55;7.40;;;8.20;99.90;;;;;;4977413;28;20202;-82
2021/03/01 09:26:42;;;;;;;15.50;8.13;;;8.10;99.90;;;;;;4992637;28;20238;-80
2021/03/01 09:29:17;;;;;;;14.07;6.45;;;8.20;99.90;;;;;;4993162;28;20270;-81
2021/03/01 09:31:46;;;;;;;12.18;7.28;;;8.00;99.90;;;;;;4978219;28;20818;-81
2021/03/01 09:34:13;;;;;;;18.60;6.82;;;7.70;99.90;;;;;;4977946;28;20167;-82
2021/03/01 09:36:40;;;;;;;10.93;6.68;;;7.80;99.90;;;;;;4976352;28;20183;-81
2021/03/01 09:39:08;;;;;;;12.02;7.75;;;7.90;99.90;;;;;;4992002;28;20210;-81
2021/03/01 09:41:35;;;;;;;15.30;7.47;;;7.80;99.90;;;;;;4992209;28;20321;-81
2021/03/01 09:44:01;;;;;;;12.63;7.57;;;8.10;99.90;;;;;;4974878;28;20294;-80
2021/03/01 09:46:27;;;;;;;11.57;6.43;;;8.00;99.90;;;;;;4976426;28;20191;-81
2021/03/01 09:48:57;;;;;;;16.70;7.68;;;8.10;99.90;;;;;;4975280;28;20179;-81
2021/03/01 09:51:24;;;;;;;15.00;7.78;;;8.30;99.90;;;;;;4976591;28;20196;-81
2021/03/01 09:53:50;;;;;;;14.57;7.65;;;8.30;99.90;;;;;;4978863;28;20191;-80
2021/03/01 09:56:16;;;;;;;11.43;7.07;;;8.20;99.90;;;;;;4976745;28;20191;-79
2021/03/01 09:58:43;;;;;;;12.00;6.95;;;7.90;99.90;;;;;;4976563;28;20186;-78
2021/03/01 10:01:18;;;;;;;14.88;7.70;;;8.20;99.90;;;;;;4990752;28;20203;-78
2021/03/01 10:03:51;;;;;;;14.50;7.55;;;8.20;99.90;;;;;;4975541;28;20207;-78
2021/03/01 10:06:30;;;;;;;14.70;7.63;;;8.40;99.90;;;;;;4975947;28;20167;-79
2021/03/01 10:09:16;;;;;;;14.60;6.55;;;8.40;99.90;;;;;;4991660;28;20271;-80
2021/03/01 10:11:41;;;;;;;15.02;7.47;;;8.40;99.90;;;;;;4976169;28;20211;-78
2021/03/01 10:14:09;;;;;;;13.47;7.03;;;8.50;99.90;;;;;;4994750;28;20171;-78
2021/03/01 10:16:40;;;;;;;16.70;8.80;;;8.50;99.90;;;;;;4966101;28;20188;-78
2021/03/01 10:19:13;;;;;;;15.20;7.60;;;8.50;99.90;;;;;;4966665;28;20179;-78
2021/03/01 10:21:39;;;;;;;17.58;8.80;;;8.50;99.90;;;;;;4963778;28;20217;-78
2021/03/01 10:24:07;;;;;;;12.93;7.47;;;8.30;99.90;;;;;;4966445;28;20207;-79
2021/03/01 10:26:35;;;;;;;14.88;7.07;;;8.40;99.90;;;;;;4975018;28;20669;-79
2021/03/01 10:29:02;;;;;;;14.27;8.10;;;8.40;99.90;;;;;;4990689;28;20512;-79
2021/03/01 10:31:33;;;;;;;15.55;7.47;;;8.30;99.90;;;;;;4972962;28;20204;-78
2021/03/01 10:34:29;;;;;;;11.43;7.18;;;8.30;99.90;;;;;;4976369;28;20263;-79
2021/03/01 10:36:57;;;;;;;16.27;7.63;;;8.30;99.90;;;;;;4975020;28;20172;-80
2021/03/01 10:39:29;;;;;;;13.15;7.18;;;8.50;99.90;;;;;;4977058;28;20172;-80
2021/03/01 10:41:57;;;;;;;11.98;6.72;;;8.60;99.90;;;;;;4979701;28;20203;-79
2021/03/01 10:44:35;;;;;;;14.68;6.30;;;8.80;99.90;;;;;;4974326;28;20586;-79
2021/03/01 10:47:15;;;;;;;12.23;6.45;;;8.40;99.90;;;;;;4974838;28;20175;-79
2021/03/01 10:49:43;;;;;;;17.35;6.60;;;8.10;99.90;;;;;;4974951;28;20175;-80
2021/03/01 10:52:09;;;;;;;12.88;7.28;;;8.10;99.90;;;;;;4973975;28;20195;-80
2021/03/01 10:54:39;;;;;;;14.50;6.40;;;7.90;99.90;;;;;;4974135;28;20693;-80
2021/03/01 10:57:05;;;;;;;15.13;8.45;;;8.30;99.90;;;;;;4975009;28;20554;-80
2021/03/01 10:59:30;;;;;;;14.57;8.95;;;8.40;99.90;;;;;;4975497;28;20199;-81
2021/03/01 11:01:56;;;;;;;17.30;8.43;;;8.60;99.90;;;;;;4989714;28;20203;-80
2021/03/01 11:04:22;;;;;;;15.07;7.73;;;8.70;99.90;;;;;;4974271;28;20674;-82
2021/03/01 11:06:49;;;;;;;12.30;6.47;;;8.80;99.90;;;;;;4974446;28;20539;-80
2021/03/01 11:09:15;;;;;;;15.00;8.00;;;8.60;99.90;;;;;;4973216;28;20179;-81
2021/03/01 11:11:41;;;;;;;15.77;6.38;;;8.40;99.90;;;;;;4974369;28;20198;-80
2021/03/01 11:14:09;;;;;;;19.70;7.60;;;8.60;99.90;;;;;;4990582;28;20621;-80
2021/03/01 11:16:34;;;;;;;17.13;8.48;;;8.80;99.90;;;;;;4977282;28;20829;-81
2021/03/01 11:19:00;;;;;;;12.67;7.73;;;8.80;99.90;;;;;;4981001;28;20233;-82
2021/03/01 11:21:26;;;;;;;14.57;7.97;;;8.80;99.90;;;;;;5000544;28;20850;-79
2021/03/01 11:23:52;;;;;;;14.05;6.60;;;8.90;99.90;;;;;;4977210;28;20210;-79
2021/03/01 11:26:18;;;;;;;13.90;8.70;;;9.10;99.90;;;;;;4977309;28;20172;-79
2021/03/01 11:28:44;;;;;;;13.80;7.03;;;9.00;99.90;;;;;;4976514;28;20183;-79
2021/03/01 11:31:10;;;;;;;12.88;6.93;;;8.80;99.90;;;;;;4992482;28;20225;-79
2021/03/01 11:33:37;;;;;;;12.48;7.70;;;8.90;99.90;;;;;;4977559;28;20194;-79
2021/03/01 11:36:03;;;;;;;10.05;6.25;;;9.00;99.90;;;;;;4975748;28;20323;-79
2021/03/01 11:38:29;;;;;;;13.13;7.47;;;9.00;99.90;;;;;;4977209;28;20245;-80
2021/03/01 11:40:58;;;;;;;15.30;7.55;;;8.90;99.90;;;;;;4977219;28;20431;-80
2021/03/01 11:43:24;;;;;;;10.63;5.80;;;8.90;99.90;;;;;;4991617;28;20191;-79
2021/03/01 11:45:50;;;;;;;14.15;7.60;;;8.80;99.90;;;;;;4976306;28;20215;-78
2021/03/01 11:48:17;;;;;;;16.13;7.17;;;9.00;99.90;;;;;;4975924;28;20191;-78
2021/03/01 11:50:47;;;;;;;11.50;6.68;;;9.10;99.90;;;;;;4975150;28;20199;-79
2021/03/01 11:53:14;;;;;;;15.82;7.28;;;9.20;99.90;;;;;;4991486;28;20167;-79
2021/03/01 11:55:40;;;;;;;11.43;7.15;;;9.20;99.90;;;;;;4976600;28;20222;-79
2021/03/01 11:58:06;;;;;;;13.52;7.15;;;9.20;99.90;;;;;;4974697;28;20190;-79
2021/03/01 12:00:32;;;;;;;16.15;8.20;;;9.00;99.90;;;;;;4976101;28;20623;-79
2021/03/01 12:03:01;;;;;;;17.13;10.10;;;9.00;99.90;;;;;;4991011;28;20227;-79
2021/03/01 12:05:26;;;;;;;15.73;6.80;;;9.20;99.90;;;;;;4975889;28;20191;-79
2021/03/01 12:07:52;;;;;;;12.00;7.13;;;9.30;99.90;;;;;;4974229;28;20651;-79
2021/03/01 12:10:24;;;;;;;11.70;6.77;;;9.30;99.90;;;;;;4975502;28;20175;-78
2021/03/01 12:12:53;;;;;;;12.90;7.70;;;9.30;99.90;;;;;;4990987;28;20278;-81
2021/03/01 12:15:19;;;;;;;16.55;8.38;;;8.90;99.90;;;;;;4991459;28;20178;-79
2021/03/01 12:17:45;;;;;;;15.90;7.73;;;8.90;99.90;;;;;;4974273;28;20180;-79
2021/03/01 12:20:10;;;;;;;13.63;8.00;;;9.00;99.90;;;;;;4961530;28;20586;-79
2021/03/01 12:22:36;;;;;;;13.50;7.10;;;9.20;99.90;;;;;;4982421;28;20175;-80
2021/03/01 12:25:04;;;;;;;14.70;8.20;;;9.30;99.90;;;;;;4996039;28;20831;-80
2021/03/01 12:27:29;;;;;;;20.77;9.95;;;9.40;99.90;;;;;;4979777;28;20262;-80
2021/03/01 12:29:55;;;;;;;15.00;7.73;;;9.40;99.90;;;;;;4980063;28;20214;-80
2021/03/01 12:32:20;;;;;;;12.20;6.67;;;9.40;99.90;;;;;;4994822;28;20204;-80
2021/03/01 12:34:49;;;;;;;19.07;8.70;;;9.40;99.90;;;;;;4976545;28;20186;-80
2021/03/01 12:37:15;;;;;;;14.98;7.68;;;9.40;99.90;;;;;;4976892;28;20187;-80
2021/03/01 12:39:41;;;;;;;16.73;7.97;;;9.30;99.90;;;;;;4975485;28;20543;-80
2021/03/01 12:42:07;;;;;;;14.50;6.73;;;9.40;99.90;;;;;;4975222;28;20250;-80
2021/03/01 12:44:33;;;;;;;12.40;7.80;;;9.30;99.90;;;;;;4991137;28;20773;-80
2021/03/01 12:46:59;;;;;;;17.15;8.30;;;9.40;99.90;;;;;;4976042;28;20647;-80
2021/03/01 12:49:25;;;;;;;14.33;7.60;;;9.40;99.90;;;;;;4976092;28;20178;-80
2021/03/01 12:51:51;;;;;;;19.80;8.10;;;9.40;99.90;;;;;;4975722;28;20270;-80
2021/03/01 12:54:17;;;;;;;13.00;7.70;;;9.50;99.90;;;;;;4974014;28;20550;-80
2021/03/01 12:56:42;;;;;;;17.40;8.15;;;9.40;99.90;;;;;;4974527;28;20850;-79
2021/03/01 12:59:11;;;;;;;13.47;7.50;;;9.50;99.90;;;;;;4974838;28;20262;-80